createdAt,value
2018-12-08T00:00:01.150Z,96145.02
2018-12-08T00:00:32.746Z,96150.17
2018-12-08T00:01:04.363Z,96149.31
2018-12-08T00:01:35.968Z,96156.19
2018-12-08T00:02:07.571Z,96154.56
2018-12-08T00:02:39.169Z,96161.28
2018-12-08T00:03:10.762Z,96162.11
2018-12-08T00:03:42.359Z,96159.96
2018-12-08T00:04:13.978Z,96158.23
2018-12-08T00:04:45.600Z,96159.09
2018-12-08T00:05:17.211Z,96162.11
2018-12-08T00:05:48.820Z,96163.01
2018-12-08T00:06:20.424Z,96161.28
2018-12-08T00:06:52.012Z,96168.92
2018-12-08T00:07:23.609Z,96161.31
2018-12-08T00:07:55.202Z,96163.94
2018-12-08T00:08:26.784Z,96157.61
2018-12-08T00:08:58.371Z,96161.45
2018-12-08T00:09:30.010Z,96160.63
2018-12-08T00:10:01.610Z,96156.84
2018-12-08T00:10:33.204Z,96149.20
2018-12-08T00:11:04.872Z,96146.69
2018-12-08T00:11:36.484Z,96146.69
2018-12-08T00:12:08.083Z,96147.23
2018-12-08T00:12:39.695Z,96147.20
2018-12-08T00:13:11.303Z,96147.66
2018-12-08T00:13:42.908Z,96146.41
2018-12-08T00:14:14.530Z,96148.55
2018-12-08T00:14:46.122Z,96153.73
2018-12-08T00:15:17.734Z,96163.91
2018-12-08T00:15:49.330Z,96154.63
2018-12-08T00:16:20.911Z,96153.32
2018-12-08T00:16:52.515Z,96162.27
2018-12-08T00:17:24.127Z,96154.77
2018-12-08T00:17:55.722Z,96157.81
2018-12-08T00:18:27.322Z,96165.42
2018-12-08T00:18:58.932Z,96160.30
2018-12-08T00:19:30.616Z,96170.53
2018-12-08T00:20:02.209Z,96167.15
2018-12-08T00:20:33.807Z,96164.17
2018-12-08T00:21:05.394Z,96169.33
2018-12-08T00:21:36.986Z,96168.98
2018-12-08T00:22:08.588Z,96167.70
2018-12-08T00:22:40.182Z,96162.62
2018-12-08T00:23:11.792Z,96167.31
2018-12-08T00:23:43.414Z,96168.22
2018-12-08T00:24:15.033Z,96166.14
2018-12-08T00:24:46.628Z,96170.78
2018-12-08T00:25:18.243Z,96164.48
2018-12-08T00:25:49.855Z,96168.63
2018-12-08T00:26:21.440Z,96168.63
2018-12-08T00:26:53.043Z,96170.84
2018-12-08T00:27:24.640Z,96168.31
2018-12-08T00:27:56.297Z,96170.46
2018-12-08T00:28:27.894Z,96172.61
2018-12-08T00:28:59.504Z,96173.88
2018-12-08T00:29:31.127Z,96173.47
2018-12-08T00:30:02.722Z,96173.47
2018-12-08T00:30:34.314Z,96173.47
2018-12-08T00:31:05.908Z,96176.03
2018-12-08T00:31:37.507Z,96178.31
2018-12-08T00:32:09.089Z,96177.86
2018-12-08T00:32:40.682Z,96184.67
2018-12-08T00:33:12.287Z,96181.69
2018-12-08T00:33:43.890Z,96179.97
2018-12-08T00:34:15.502Z,96181.59
2018-12-08T00:34:47.098Z,96187.95
2018-12-08T00:35:18.696Z,96179.93
2018-12-08T00:35:50.300Z,96183.77
2018-12-08T00:36:21.885Z,96183.70
2018-12-08T00:36:53.464Z,96184.16
2018-12-08T00:37:25.057Z,96176.68
2018-12-08T00:37:56.771Z,96185.08
2018-12-08T00:38:28.375Z,96188.50
2018-12-08T00:38:59.979Z,96190.69
2018-12-08T00:39:31.602Z,96183.42
2018-12-08T00:40:03.193Z,96178.12
2018-12-08T00:40:34.790Z,96182.69
2018-12-08T00:41:06.372Z,96177.95
2018-12-08T00:41:37.966Z,96179.59
2018-12-08T00:42:09.572Z,96175.33
2018-12-08T00:42:41.179Z,96169.39
2018-12-08T00:43:12.788Z,96168.59
2018-12-08T00:43:44.397Z,96166.48
2018-12-08T00:44:16.032Z,96163.51
2018-12-08T00:44:47.628Z,96173.33
2018-12-08T00:45:19.208Z,96179.34
2018-12-08T00:45:50.799Z,96180.23
2018-12-08T00:46:22.389Z,96181.13
2018-12-08T00:46:53.996Z,96186.22
2018-12-08T00:47:25.608Z,96181.58
2018-12-08T00:47:57.210Z,96184.55
2018-12-08T00:48:28.921Z,96183.73
2018-12-08T00:49:00.471Z,96183.24
2018-12-08T00:49:32.089Z,96181.13
2018-12-08T00:50:03.700Z,96186.22
2018-12-08T00:50:35.294Z,96184.07
2018-12-08T00:51:06.892Z,96183.52
2018-12-08T00:51:38.504Z,96179.72
2018-12-08T00:52:10.103Z,96180.17
2018-12-08T00:52:41.688Z,96175.44
2018-12-08T00:53:13.293Z,96177.06
2018-12-08T00:53:44.877Z,96177.54
2018-12-08T00:54:16.476Z,96182.17
2018-12-08T00:54:48.084Z,96172.88
2018-12-08T00:55:19.687Z,96177.06
2018-12-08T00:55:51.292Z,96175.33
2018-12-08T00:56:22.904Z,96171.95
2018-12-08T00:56:54.502Z,96178.31
2018-12-08T00:57:26.100Z,96180.86
2018-12-08T00:57:57.708Z,96177.41
2018-12-08T00:58:29.316Z,96183.39
2018-12-08T00:59:00.914Z,96184.22
2018-12-08T00:59:32.539Z,96181.59
2018-12-08T01:00:04.133Z,96181.69
2018-12-08T01:00:35.725Z,96180.73
2018-12-08T01:01:07.322Z,96180.70
2018-12-08T01:01:38.927Z,96179.83
2018-12-08T01:02:10.536Z,96174.68
2018-12-08T01:02:42.133Z,96183.19
2018-12-08T01:03:13.722Z,96183.98
2018-12-08T01:03:45.322Z,96183.63
2018-12-08T01:04:16.918Z,96183.19
2018-12-08T01:04:48.550Z,96185.78
2018-12-08T01:05:20.160Z,96185.67
2018-12-08T01:05:51.758Z,96186.05
2018-12-08T01:06:23.358Z,96194.19
2018-12-08T01:06:54.968Z,96190.45
2018-12-08T01:07:26.576Z,96195.91
2018-12-08T01:07:58.188Z,96193.28
2018-12-08T01:08:29.800Z,96194.59
2018-12-08T01:09:01.413Z,96199.27
2018-12-08T01:09:33.101Z,96192.80
2018-12-08T01:10:04.736Z,96195.78
2018-12-08T01:10:36.334Z,96198.75
2018-12-08T01:11:07.943Z,96197.47
2018-12-08T01:11:39.534Z,96197.84
2018-12-08T01:12:11.174Z,96198.68
2018-12-08T01:12:42.784Z,96205.08
2018-12-08T01:13:14.375Z,96200.31
2018-12-08T01:13:45.993Z,96200.31
2018-12-08T01:14:17.577Z,96204.52
2018-12-08T01:14:49.208Z,96204.52
2018-12-08T01:15:20.804Z,96204.56
2018-12-08T01:15:52.411Z,96208.81
2018-12-08T01:16:24.021Z,96209.27
2018-12-08T01:16:55.618Z,96210.95
2018-12-08T01:17:27.228Z,96209.67
2018-12-08T01:17:58.941Z,96210.64
2018-12-08T01:18:30.460Z,96225.03
2018-12-08T01:19:02.053Z,96230.08
2018-12-08T01:19:33.678Z,96230.94
2018-12-08T01:20:05.274Z,96242.91
2018-12-08T01:20:36.884Z,96239.86
2018-12-08T01:21:08.496Z,96249.17
2018-12-08T01:21:40.091Z,96256.02
2018-12-08T01:22:11.696Z,96259.92
2018-12-08T01:22:43.291Z,96263.76
2018-12-08T01:23:14.888Z,96282.08
2018-12-08T01:23:46.496Z,96284.16
2018-12-08T01:24:18.115Z,96263.56
2018-12-08T01:24:49.756Z,96335.75
2018-12-08T01:25:21.370Z,96328.94
2018-12-08T01:25:52.975Z,96342.98
2018-12-08T01:26:24.570Z,96342.59
2018-12-08T01:26:56.181Z,96314.06
2018-12-08T01:27:27.803Z,96325.58
2018-12-08T01:27:59.417Z,96327.73
2018-12-08T01:28:31.028Z,96325.20
2018-12-08T01:29:02.629Z,96320.63
2018-12-08T01:29:34.271Z,96322.70
2018-12-08T01:30:05.880Z,96326.09
2018-12-08T01:30:37.489Z,96321.84
2018-12-08T01:31:09.100Z,96332.20
2018-12-08T01:31:40.697Z,96328.23
2018-12-08T01:32:12.294Z,96345.73
2018-12-08T01:32:43.876Z,96340.17
2018-12-08T01:33:15.484Z,96344.45
2018-12-08T01:33:47.082Z,96334.22
2018-12-08T01:34:18.664Z,96339.81
2018-12-08T01:34:50.282Z,96332.59
2018-12-08T01:35:21.896Z,96338.12
2018-12-08T01:35:53.502Z,96337.70
2018-12-08T01:36:25.080Z,96337.84
2018-12-08T01:36:56.682Z,96336.46
2018-12-08T01:37:28.292Z,96344.65
2018-12-08T01:37:59.885Z,96343.75
2018-12-08T01:38:31.481Z,96336.91
2018-12-08T01:39:03.092Z,96332.24
2018-12-08T01:39:34.686Z,96344.59
2018-12-08T01:40:06.305Z,96330.95
2018-12-08T01:40:37.915Z,96337.42
2018-12-08T01:41:09.514Z,96323.34
2018-12-08T01:41:41.126Z,96332.20
2018-12-08T01:42:12.730Z,96324.98
2018-12-08T01:42:44.327Z,96323.25
2018-12-08T01:43:15.919Z,96319.06
2018-12-08T01:43:47.524Z,96315.22
2018-12-08T01:44:19.136Z,96319.58
2018-12-08T01:44:50.763Z,96319.06
2018-12-08T01:45:22.372Z,96321.97
2018-12-08T01:45:53.985Z,96321.94
2018-12-08T01:46:25.586Z,96305.73
2018-12-08T01:46:57.185Z,96316.31
2018-12-08T01:47:28.778Z,96312.95
2018-12-08T01:48:00.381Z,96318.52
2018-12-08T01:48:31.977Z,96323.60
2018-12-08T01:49:03.579Z,96324.05
2018-12-08T01:49:35.177Z,96325.36
2018-12-08T01:50:06.793Z,96327.47
2018-12-08T01:50:38.381Z,96326.64
2018-12-08T01:51:09.979Z,96321.08
2018-12-08T01:51:41.567Z,96327.44
2018-12-08T01:52:13.162Z,96327.47
2018-12-08T01:52:44.758Z,96326.20
2018-12-08T01:53:16.340Z,96336.88
2018-12-08T01:53:47.952Z,96330.06
2018-12-08T01:54:19.531Z,96332.17
2018-12-08T01:54:51.153Z,96334.31
2018-12-08T01:55:22.745Z,96336.05
2018-12-08T01:55:54.338Z,96333.07
2018-12-08T01:56:25.921Z,96334.45
2018-12-08T01:56:57.522Z,96336.59
2018-12-08T01:57:29.139Z,96333.17
2018-12-08T01:58:00.734Z,96333.62
2018-12-08T01:58:32.333Z,96330.32
2018-12-08T01:59:03.925Z,96340.43
2018-12-08T01:59:35.513Z,96340.53
2018-12-08T02:00:07.146Z,96342.60
2018-12-08T02:00:38.755Z,96302.80
2018-12-08T02:01:10.400Z,96335.44
2018-12-08T02:01:41.998Z,96335.44
2018-12-08T02:02:13.591Z,96344.39
2018-12-08T02:02:45.207Z,96348.69
2018-12-08T02:03:16.806Z,96338.93
2018-12-08T02:03:48.398Z,96328.31
2018-12-08T02:04:20.009Z,96344.56
2018-12-08T02:04:51.639Z,96342.83
2018-12-08T02:05:23.233Z,96342.41
2018-12-08T02:05:54.844Z,96335.67
2018-12-08T02:06:26.447Z,96345.52
2018-12-08T02:06:58.051Z,96333.94
2018-12-08T02:07:29.632Z,96341.61
2018-12-08T02:08:01.241Z,96338.22
2018-12-08T02:08:32.837Z,96338.77
2018-12-08T02:09:04.451Z,96335.19
2018-12-08T02:09:36.037Z,96344.69
2018-12-08T02:10:07.653Z,96339.34
2018-12-08T02:10:39.272Z,96354.92
2018-12-08T02:11:10.869Z,96353.80
2018-12-08T02:11:42.462Z,96353.99
2018-12-08T02:12:14.053Z,96360.52
2018-12-08T02:12:45.663Z,96363.61
2018-12-08T02:13:17.330Z,96363.65
2018-12-08T02:13:48.927Z,96368.63
2018-12-08T02:14:20.522Z,96372.44
2018-12-08T02:14:52.149Z,96374.01
2018-12-08T02:15:23.752Z,96369.69
2018-12-08T02:15:55.361Z,96373.53
2018-12-08T02:16:26.966Z,96383.09
2018-12-08T02:16:58.576Z,96363.96
2018-12-08T02:17:30.194Z,96392.75
2018-12-08T02:18:01.789Z,96388.02
2018-12-08T02:18:33.379Z,96391.34
2018-12-08T02:19:04.987Z,96389.13
2018-12-08T02:19:36.581Z,96388.63
2018-12-08T02:20:08.173Z,96390.29
2018-12-08T02:20:39.779Z,96401.32
2018-12-08T02:21:11.363Z,96401.26
2018-12-08T02:21:42.957Z,96415.81
2018-12-08T02:22:14.571Z,96409.89
2018-12-08T02:22:46.174Z,96427.39
2018-12-08T02:23:17.769Z,96420.06
2018-12-08T02:23:49.414Z,96414.95
2018-12-08T02:24:21.024Z,96420.92
2018-12-08T02:24:52.629Z,96429.02
2018-12-08T02:25:24.235Z,96424.31
2018-12-08T02:25:55.829Z,96426.87
2018-12-08T02:26:27.427Z,96430.30
2018-12-08T02:26:59.022Z,96430.65
2018-12-08T02:27:30.619Z,96433.56
2018-12-08T02:28:02.212Z,96435.22
2018-12-08T02:28:33.805Z,96433.14
2018-12-08T02:29:05.403Z,96438.80
2018-12-08T02:29:37.008Z,96437.56
2018-12-08T02:30:08.641Z,96433.78
2018-12-08T02:30:40.245Z,96437.27
2018-12-08T02:31:11.873Z,96441.59
2018-12-08T02:31:43.476Z,96437.33
2018-12-08T02:32:15.070Z,96439.03
2018-12-08T02:32:46.669Z,96438.61
2018-12-08T02:33:18.270Z,96436.50
2018-12-08T02:33:49.866Z,96441.11
2018-12-08T02:34:21.463Z,96442.45
2018-12-08T02:34:53.067Z,96437.36
2018-12-08T02:35:24.701Z,96433.08
2018-12-08T02:35:56.396Z,96446.28
2018-12-08T02:36:27.981Z,96441.59
2018-12-08T02:36:59.596Z,96434.80
2018-12-08T02:37:31.208Z,96448.05
2018-12-08T02:38:02.802Z,96445.52
2018-12-08T02:38:34.401Z,96446.86
2018-12-08T02:39:05.982Z,96450.22
2018-12-08T02:39:37.580Z,96458.81
2018-12-08T02:40:09.174Z,96444.78
2018-12-08T02:40:40.915Z,96446.47
2018-12-08T02:41:12.501Z,96445.20
2018-12-08T02:41:44.099Z,96450.28
2018-12-08T02:42:15.703Z,96451.56
2018-12-08T02:42:47.311Z,96451.11
2018-12-08T02:43:18.912Z,96454.98
2018-12-08T02:43:50.516Z,96453.31
2018-12-08T02:44:22.109Z,96457.66
2018-12-08T02:44:53.709Z,96453.41
2018-12-08T02:45:25.693Z,96460.58
2018-12-08T02:45:57.304Z,96460.22
2018-12-08T02:46:28.902Z,96475.98
2018-12-08T02:47:00.502Z,96469.59
2018-12-08T02:47:32.112Z,96467.06
2018-12-08T02:48:03.713Z,96464.00
2018-12-08T02:48:35.297Z,96472.95
2018-12-08T02:49:06.903Z,96472.50
2018-12-08T02:49:38.513Z,96471.23
2018-12-08T02:50:10.131Z,96470.81
2018-12-08T02:50:41.754Z,96472.09
2018-12-08T02:51:13.346Z,96478.42
2018-12-08T02:51:44.955Z,96478.88
2018-12-08T02:52:16.551Z,96477.59
2018-12-08T02:52:48.147Z,96480.15
2018-12-08T02:53:19.743Z,96480.98
2018-12-08T02:53:51.342Z,96476.28
2018-12-08T02:54:22.935Z,96484.75
2018-12-08T02:54:54.540Z,96480.47
2018-12-08T02:55:26.204Z,96491.12
2018-12-08T02:55:57.802Z,96485.59
2018-12-08T02:56:29.411Z,96487.28
2018-12-08T02:57:01.024Z,96484.28
2018-12-08T02:57:32.626Z,96481.33
2018-12-08T02:58:04.225Z,96483.45
2018-12-08T02:58:35.822Z,96494.96
2018-12-08T02:59:07.439Z,96492.81
2018-12-08T02:59:39.048Z,96492.81
2018-12-08T03:00:10.651Z,96490.26
2018-12-08T03:00:42.293Z,96495.77
2018-12-08T03:01:13.890Z,96499.60
2018-12-08T03:01:45.499Z,96492.70
2018-12-08T03:02:17.098Z,96495.67
2018-12-08T03:02:48.707Z,96496.95
2018-12-08T03:03:20.305Z,96501.17
2018-12-08T03:03:51.903Z,96503.28
2018-12-08T03:04:23.520Z,96504.05
2018-12-08T03:04:55.113Z,96511.73
2018-12-08T03:05:26.706Z,96505.75
2018-12-08T03:05:58.339Z,96510.39
2018-12-08T03:06:29.939Z,96515.89
2018-12-08T03:07:01.535Z,96506.04
2018-12-08T03:07:33.120Z,96514.13
2018-12-08T03:08:04.710Z,96500.30
2018-12-08T03:08:36.306Z,96507.41
2018-12-08T03:09:07.907Z,96510.83
2018-12-08T03:09:39.496Z,96514.29
2018-12-08T03:10:11.103Z,96510.48
2018-12-08T03:10:42.735Z,96515.89
2018-12-08T03:11:14.330Z,96519.79
2018-12-08T03:11:45.935Z,96516.72
2018-12-08T03:12:17.543Z,96517.94
2018-12-08T03:12:49.160Z,96516.24
2018-12-08T03:13:20.753Z,96516.27
2018-12-08T03:13:52.347Z,96520.98
2018-12-08T03:14:23.942Z,96529.58
2018-12-08T03:14:55.561Z,96525.33
2018-12-08T03:15:27.189Z,96528.30
2018-12-08T03:15:58.819Z,96532.08
2018-12-08T03:16:30.415Z,96523.56
2018-12-08T03:17:02.011Z,96521.91
2018-12-08T03:17:33.621Z,96520.63
2018-12-08T03:18:05.235Z,96526.54
2018-12-08T03:18:36.844Z,96526.09
2018-12-08T03:19:08.432Z,96526.89
2018-12-08T03:19:40.025Z,96523.92
2018-12-08T03:20:11.618Z,96524.75
2018-12-08T03:20:43.200Z,96526.36
2018-12-08T03:21:14.808Z,96523.41
2018-12-08T03:21:46.402Z,96528.50
2018-12-08T03:22:18.016Z,96528.08
2018-12-08T03:22:49.614Z,96540.40
2018-12-08T03:23:21.215Z,96542.48
2018-12-08T03:23:52.813Z,96539.98
2018-12-08T03:24:24.410Z,96553.22
2018-12-08T03:24:56.027Z,96550.25
2018-12-08T03:25:27.626Z,96551.62
2018-12-08T03:25:59.242Z,96551.20
2018-12-08T03:26:30.835Z,96549.06
2018-12-08T03:27:02.430Z,96554.18
2018-12-08T03:27:34.039Z,96552.93
2018-12-08T03:28:05.639Z,96552.12
2018-12-08T03:28:37.256Z,96549.22
2018-12-08T03:29:08.855Z,96556.80
2018-12-08T03:29:40.464Z,96569.23
2018-12-08T03:30:12.073Z,96562.84
2018-12-08T03:30:45.417Z,96566.74
2018-12-08T03:31:15.365Z,96568.02
2018-12-08T03:31:46.977Z,96568.88
2018-12-08T03:32:18.586Z,96562.48
2018-12-08T03:32:50.178Z,96573.11
2018-12-08T03:33:21.809Z,96573.97
2018-12-08T03:33:53.419Z,96565.46
2018-12-08T03:34:25.017Z,96535.38
2018-12-08T03:34:56.634Z,96571.00
2018-12-08T03:35:28.233Z,96569.69
2018-12-08T03:35:59.872Z,96581.23
2018-12-08T03:36:31.476Z,96580.78
2018-12-08T03:37:03.075Z,96547.66
2018-12-08T03:37:34.674Z,96577.78
2018-12-08T03:38:06.270Z,96585.04
2018-12-08T03:38:37.880Z,96585.48
2018-12-08T03:39:09.465Z,96580.37
2018-12-08T03:39:41.075Z,96587.66
2018-12-08T03:40:12.698Z,96586.47
2018-12-08T03:40:44.294Z,96584.69
2018-12-08T03:41:15.929Z,96597.48
2018-12-08T03:41:47.543Z,96598.34
2018-12-08T03:42:19.157Z,96593.70
2018-12-08T03:42:50.765Z,96604.29
2018-12-08T03:43:22.367Z,96604.29
2018-12-08T03:43:53.961Z,96279.48
2018-12-08T03:44:25.553Z,96606.41
2018-12-08T03:44:57.132Z,96604.23
2018-12-08T03:45:28.741Z,96611.10
2018-12-08T03:46:00.381Z,96581.86
2018-12-08T03:46:31.979Z,96614.11
2018-12-08T03:47:03.575Z,96617.53
2018-12-08T03:47:35.179Z,96607.41
2018-12-08T03:48:06.789Z,96613.66
2018-12-08T03:48:38.372Z,96618.81
2018-12-08T03:49:09.967Z,96629.43
2018-12-08T03:49:41.568Z,96627.73
2018-12-08T03:50:13.175Z,96628.16
2018-12-08T03:50:44.785Z,96627.31
2018-12-08T03:51:16.419Z,96630.73
2018-12-08T03:51:48.033Z,96640.55
2018-12-08T03:52:19.635Z,96639.25
2018-12-08T03:52:51.234Z,96636.66
2018-12-08T03:53:22.826Z,96642.20
2018-12-08T03:53:54.422Z,96640.05
2018-12-08T03:54:26.022Z,96650.29
2018-12-08T03:54:57.632Z,96644.75
2018-12-08T03:55:29.234Z,96650.29
2018-12-08T03:56:00.848Z,96651.18
2018-12-08T03:56:32.442Z,96657.10
2018-12-08T03:57:04.024Z,96656.69
2018-12-08T03:57:35.618Z,96657.10
2018-12-08T03:58:07.213Z,96654.48
2018-12-08T03:58:38.805Z,96663.98
2018-12-08T03:59:10.420Z,96670.22
2018-12-08T03:59:42.024Z,96667.66
2018-12-08T04:00:13.613Z,96668.95
2018-12-08T04:00:45.206Z,96664.69
2018-12-08T04:01:16.832Z,96667.66
2018-12-08T04:01:48.425Z,96673.97
2018-12-08T04:02:20.017Z,96671.69
2018-12-08T04:02:51.614Z,96661.39
2018-12-08T04:03:23.211Z,96675.49
2018-12-08T04:03:54.811Z,96676.74
2018-12-08T04:04:26.425Z,96684.36
2018-12-08T04:04:58.022Z,96674.98
2018-12-08T04:05:29.606Z,96682.73
2018-12-08T04:06:01.224Z,96678.92
2018-12-08T04:06:32.808Z,96683.47
2018-12-08T04:07:04.402Z,96683.38
2018-12-08T04:07:35.999Z,96682.02
2018-12-08T04:08:07.597Z,96686.22
2018-12-08T04:08:39.193Z,96683.33
2018-12-08T04:09:10.785Z,96687.91
2018-12-08T04:09:42.395Z,96687.49
2018-12-08T04:10:14.002Z,96686.63
2018-12-08T04:10:45.597Z,96688.86
2018-12-08T04:11:17.217Z,96688.44
2018-12-08T04:11:48.809Z,96699.98
2018-12-08T04:12:20.451Z,96694.42
2018-12-08T04:12:52.040Z,96701.69
2018-12-08T04:13:23.648Z,96700.41
2018-12-08T04:13:55.242Z,96696.09
2018-12-08T04:14:26.842Z,96700.37
2018-12-08T04:14:58.434Z,96698.66
2018-12-08T04:15:30.029Z,96696.53
2018-12-08T04:16:01.672Z,96699.57
2018-12-08T04:16:33.273Z,96702.97
2018-12-08T04:17:04.869Z,96696.56
2018-12-08T04:17:36.477Z,96694.52
2018-12-08T04:18:08.082Z,96699.22
2018-12-08T04:18:39.668Z,96700.49
2018-12-08T04:19:11.256Z,96700.14
2018-12-08T04:19:42.851Z,96696.74
2018-12-08T04:20:14.446Z,96695.94
2018-12-08T04:20:46.055Z,96700.22
2018-12-08T04:21:17.677Z,96708.73
2018-12-08T04:21:49.284Z,96710.82
2018-12-08T04:22:20.895Z,96712.06
2018-12-08T04:22:52.490Z,96723.56
2018-12-08T04:23:24.106Z,96719.75
2018-12-08T04:23:55.709Z,96717.61
2018-12-08T04:24:27.314Z,96713.34
2018-12-08T04:24:58.924Z,96730.73
2018-12-08T04:25:30.529Z,96721.39
2018-12-08T04:26:02.227Z,96729.95
2018-12-08T04:26:33.826Z,96724.42
2018-12-08T04:27:05.576Z,96722.72
2018-12-08T04:27:37.057Z,96729.54
2018-12-08T04:28:08.649Z,96734.62
2018-12-08T04:28:40.243Z,96737.61
2018-12-08T04:29:11.834Z,96743.02
2018-12-08T04:29:43.416Z,96748.17
2018-12-08T04:30:15.012Z,96740.08
2018-12-08T04:30:46.624Z,96730.52
2018-12-08T04:31:18.261Z,96748.08
2018-12-08T04:31:49.858Z,96757.46
2018-12-08T04:32:21.466Z,96761.72
2018-12-08T04:32:53.061Z,96762.22
2018-12-08T04:33:24.670Z,96759.66
2018-12-08T04:33:56.277Z,96763.50
2018-12-08T04:34:27.873Z,96760.08
2018-12-08T04:34:59.466Z,96759.24
2018-12-08T04:35:31.054Z,96764.39
2018-12-08T04:36:02.655Z,96757.46
2018-12-08T04:36:34.254Z,96759.60
2018-12-08T04:37:05.847Z,96757.58
2018-12-08T04:37:37.451Z,96758.80
2018-12-08T04:38:09.048Z,96757.97
2018-12-08T04:38:40.641Z,96758.41
2018-12-08T04:39:12.251Z,96757.13
2018-12-08T04:39:43.859Z,96758.88
2018-12-08T04:40:15.465Z,96757.13
2018-12-08T04:40:47.061Z,96758.44
2018-12-08T04:41:18.645Z,96755.77
2018-12-08T04:41:50.238Z,96757.88
2018-12-08T04:42:21.844Z,96726.90
2018-12-08T04:42:53.449Z,96760.88
2018-12-08T04:43:25.045Z,96762.91
2018-12-08T04:43:56.647Z,96762.35
2018-12-08T04:44:28.237Z,96762.65
2018-12-08T04:44:59.820Z,96758.81
2018-12-08T04:45:31.430Z,96756.64
2018-12-08T04:46:03.035Z,96753.22
2018-12-08T04:46:34.642Z,96756.16
2018-12-08T04:47:06.248Z,96754.83
2018-12-08T04:47:37.859Z,96747.66
2018-12-08T04:48:09.467Z,96747.29
2018-12-08T04:48:41.136Z,96754.55
2018-12-08T04:49:12.748Z,96764.29
2018-12-08T04:49:44.350Z,96759.17
2018-12-08T04:50:15.960Z,96753.69
2018-12-08T04:50:47.568Z,96757.89
2018-12-08T04:51:19.176Z,96763.88
2018-12-08T04:51:50.774Z,96758.78
2018-12-08T04:52:22.375Z,96765.62
2018-12-08T04:52:53.969Z,96761.37
2018-12-08T04:53:25.559Z,96772.41
2018-12-08T04:53:57.159Z,96767.27
2018-12-08T04:54:28.755Z,96773.67
2018-12-08T04:55:00.364Z,96778.31
2018-12-08T04:55:31.959Z,96756.23
2018-12-08T04:56:03.610Z,96776.23
2018-12-08T04:56:35.245Z,96782.51
2018-12-08T04:57:06.841Z,96779.95
2018-12-08T04:57:38.419Z,96768.43
2018-12-08T04:58:10.024Z,96775.30
2018-12-08T04:58:41.624Z,96784.32
2018-12-08T04:59:13.233Z,96784.80
2018-12-08T04:59:44.835Z,96777.56
2018-12-08T05:00:16.451Z,96781.43
2018-12-08T05:00:48.055Z,96780.57
2018-12-08T05:01:19.663Z,96779.28
2018-12-08T05:01:51.286Z,96780.98
2018-12-08T05:02:22.881Z,96781.49
2018-12-08T05:02:54.474Z,96779.68
2018-12-08T05:03:26.079Z,96781.34
2018-12-08T05:03:57.682Z,96779.65
2018-12-08T05:04:29.277Z,96781.79
2018-12-08T05:05:00.884Z,96783.97
2018-12-08T05:05:32.478Z,96787.89
2018-12-08T05:06:04.069Z,96785.80
2018-12-08T05:06:35.693Z,96795.27
2018-12-08T05:07:07.290Z,96789.73
2018-12-08T05:07:38.895Z,96789.43
2018-12-08T05:08:10.510Z,96786.81
2018-12-08T05:08:42.120Z,96795.38
2018-12-08T05:09:13.700Z,96788.59
2018-12-08T05:09:45.284Z,96793.73
2018-12-08T05:10:16.891Z,96781.91
2018-12-08T05:10:48.486Z,96793.41
2018-12-08T05:11:20.078Z,96793.38
2018-12-08T05:11:51.697Z,96792.13
2018-12-08T05:12:23.295Z,96794.63
2018-12-08T05:12:54.881Z,96789.03
2018-12-08T05:13:26.479Z,96793.38
2018-12-08T05:13:58.085Z,96792.09
2018-12-08T05:14:29.691Z,96786.12
2018-12-08T05:15:01.300Z,96789.95
2018-12-08T05:15:32.905Z,96781.86
2018-12-08T05:16:04.499Z,96785.73
2018-12-08T05:16:36.084Z,96792.09
2018-12-08T05:17:07.703Z,96792.98
2018-12-08T05:17:39.297Z,96787.93
2018-12-08T05:18:10.889Z,96796.47
2018-12-08T05:18:42.481Z,96791.80
2018-12-08T05:19:14.073Z,96790.09
2018-12-08T05:19:45.655Z,96782.87
2018-12-08T05:20:17.240Z,96789.69
2018-12-08T05:20:48.833Z,96792.23
2018-12-08T05:21:20.420Z,96794.83
2018-12-08T05:21:52.051Z,96798.25
2018-12-08T05:22:23.677Z,96789.83
2018-12-08T05:22:55.285Z,96790.57
2018-12-08T05:23:26.868Z,96800.45
2018-12-08T05:23:58.475Z,96764.61
2018-12-08T05:24:30.084Z,96792.33
2018-12-08T05:25:01.696Z,96803.84
2018-12-08T05:25:33.364Z,96785.09
2018-12-08T05:26:04.949Z,96787.20
2018-12-08T05:26:36.556Z,96794.11
2018-12-08T05:27:08.192Z,96794.47
2018-12-08T05:27:39.801Z,96796.22
2018-12-08T05:28:11.411Z,96796.64
2018-12-08T05:28:43.024Z,96794.92
2018-12-08T05:29:14.627Z,96795.78
2018-12-08T05:29:46.208Z,96798.78
2018-12-08T05:30:17.807Z,96796.25
2018-12-08T05:30:49.402Z,96800.50
2018-12-08T05:31:21.002Z,96802.20
2018-12-08T05:31:52.611Z,96798.34
2018-12-08T05:32:24.252Z,96804.65
2018-12-08T05:32:55.946Z,96806.32
2018-12-08T05:33:27.537Z,96800.31
2018-12-08T05:33:59.120Z,96790.84
2018-12-08T05:34:30.711Z,96790.82
2018-12-08T05:35:02.305Z,96797.66
2018-12-08T05:35:33.891Z,96795.52
2018-12-08T05:36:05.482Z,96792.57
2018-12-08T05:36:37.084Z,96787.03
2018-12-08T05:37:08.707Z,96788.73
2018-12-08T05:37:40.310Z,96772.14
2018-12-08T05:38:11.909Z,96784.09
2018-12-08T05:38:43.496Z,96790.07
2018-12-08T05:39:15.085Z,96782.42
2018-12-08T05:39:46.696Z,96790.55
2018-12-08T05:40:18.290Z,96792.63
2018-12-08T05:40:49.884Z,96787.52
2018-12-08T05:41:21.478Z,96788.73
2018-12-08T05:41:53.059Z,96788.43
2018-12-08T05:42:24.668Z,96792.16
2018-12-08T05:42:56.244Z,96793.44
2018-12-08T05:43:27.837Z,96793.41
2018-12-08T05:43:59.434Z,96795.52
2018-12-08T05:44:31.032Z,96795.08
2018-12-08T05:45:02.626Z,96795.08
2018-12-08T05:45:34.225Z,96798.95
2018-12-08T05:46:05.817Z,96799.39
2018-12-08T05:46:37.409Z,96787.09
2018-12-08T05:47:09.026Z,96786.67
2018-12-08T05:47:40.618Z,96773.39
2018-12-08T05:48:12.214Z,96779.06
2018-12-08T05:48:43.805Z,96793.10
2018-12-08T05:49:15.407Z,96788.82
2018-12-08T05:49:47.015Z,96785.01
2018-12-08T05:50:18.615Z,96788.02
2018-12-08T05:50:50.269Z,96792.33
2018-12-08T05:51:21.858Z,96794.41
2018-12-08T05:51:53.480Z,96786.73
2018-12-08T05:52:25.111Z,96788.94
2018-12-08T05:52:56.710Z,96785.09
2018-12-08T05:53:28.307Z,96794.92
2018-12-08T05:53:59.902Z,96783.45
2018-12-08T05:54:31.503Z,96798.31
2018-12-08T05:55:03.113Z,96782.14
2018-12-08T05:55:34.710Z,96788.99
2018-12-08T05:56:06.311Z,96781.82
2018-12-08T05:56:37.919Z,96783.84
2018-12-08T05:57:09.542Z,96783.87
2018-12-08T05:57:41.124Z,96786.41
2018-12-08T05:58:12.715Z,96785.09
2018-12-08T05:58:44.324Z,96791.44
2018-12-08T05:59:15.925Z,96786.70
2018-12-08T05:59:47.521Z,96790.13
2018-12-08T06:00:19.128Z,96795.75
2018-12-08T06:00:50.736Z,96793.64
2018-12-08T06:01:22.320Z,96786.80
2018-12-08T06:01:53.924Z,96790.22
2018-12-08T06:02:25.555Z,96799.95
2018-12-08T06:02:57.153Z,96802.09
2018-12-08T06:03:28.760Z,96796.20
2018-12-08T06:04:00.353Z,96805.98
2018-12-08T06:04:31.952Z,96806.02
2018-12-08T06:05:03.572Z,96803.02
2018-12-08T06:05:35.175Z,96804.29
2018-12-08T06:06:06.761Z,96809.32
2018-12-08T06:06:38.368Z,96812.33
2018-12-08T06:07:10.005Z,96816.58
2018-12-08T06:07:41.639Z,96813.28
2018-12-08T06:08:13.247Z,96810.25
2018-12-08T06:08:44.846Z,96808.07
2018-12-08T06:09:16.447Z,96808.97
2018-12-08T06:09:48.074Z,96811.52
2018-12-08T06:10:19.692Z,96803.43
2018-12-08T06:10:51.304Z,96805.52